Valtamed — IBPB — position and weather

sailwx.info

Track history (hours):
 
Tides and Currents Weather Stations Pressure Air Temp Water Temp Dewpoint Dewpoint Depression Visibility Wind Speed Wind Dir Waves Ship Positions

Valtamed

Last reported at 2018-Feb-10 03:27 UTC. Time now 2018-Feb-18 18:34 UTC.
Position N 37°39' E 023°43'.
Warning: this ship's position is 8 days out of date.

Length 274 m; draft 13.5 m.

Type: Ship (hazmat cat C). MMSI: 247114500.

Date/timePositionNaut miles runAvg speedWind from/ knotsBaromVisibWave heightAir tempDewpointWater temp
2018-Feb-10 03:27N 37°39' E 023°43'512.2
2018-Feb-10 03:00N 37°44' E 023°40'611.8
2018-Feb-10 02:31N 37°49' E 023°37'611.6
2018-Feb-10 02:00N 37°50' E 023°29'612.0
2018-Feb-10 01:30N 37°52' E 023°22'612.1
2018-Feb-10 01:00N 37°53' E 023°14'611.6
2018-Feb-10 00:30N 37°54' E 023°07'2 3.4
2018-Feb-10 00:00N 37°55' E 023°05'0 0.1
2018-Feb-09 23:30N 37°55' E 023°05'0 0.0
2018-Feb-09 23:00N 37°55' E 023°05'0 0.0
2018-Feb-09 22:45N 37°55' E 023°05'1 0.0
2018-Feb-08 10:30N 37°54' E 023°05'0 0.1
2018-Feb-08 10:00N 37°54' E 023°05'0 0.1
2018-Feb-08 09:30N 37°54' E 023°05'0 0.2
2018-Feb-08 09:00N 37°54' E 023°05'0 0.0
2018-Feb-08 08:30N 37°54' E 023°05'0 0.1
2018-Feb-08 08:00N 37°54' E 023°05'0 0.1
2018-Feb-08 07:30N 37°54' E 023°05'0 0.1
2018-Feb-08 07:00N 37°54' E 023°05'0 0.3
2018-Feb-08 06:30N 37°54' E 023°05'1 1.3
2018-Feb-08 06:00N 37°54' E 023°05'2 4.8
2018-Feb-08 05:30N 37°53' E 023°08'5 9.8
2018-Feb-08 05:00N 37°53' E 023°14'510.5
2018-Feb-08 04:30N 37°52' E 023°21'510.4
2018-Feb-08 04:00N 37°51' E 023°27'510.0
2018-Feb-08 03:30N 37°50' E 023°34'8 7.7
2018-Feb-08 02:30N 37°46' E 023°42'1111.1
2018-Feb-08 01:30N 37°36' E 023°47'611.2
2018-Feb-08 00:58N 37°30' E 023°50'33010.1
2018-Feb-06 16:13N 35°44' E 030°19'  
2018-Feb-01 10:01N 36°40' E 014°33'014.7
2018-Feb-01 10:00N 36°41' E 014°33'714.2
2018-Feb-01 09:30N 36°43' E 014°24'713.8
2018-Feb-01 09:00N 36°46' E 014°17'713.5
2018-Feb-01 08:30N 36°49' E 014°10'1313.4
2018-Feb-01 07:30N 36°56' E 013°55'714.4
2018-Feb-01 07:00N 36°59' E 013°47'  
Track history (hours):
 
Tides and Currents Weather Stations Pressure Air Temp Water Temp Dewpoint Dewpoint Depression Visibility Wind Speed Wind Dir Waves Ship Positions

Valtamed

Last reported at 2018-Feb-10 03:27 UTC. Time now 2018-Feb-18 18:34 UTC.
Position N 37°39' E 023°43'.
Warning: this ship's position is 8 days out of date.

Length 274 m; draft 13.5 m.

Type: Ship (hazmat cat C). MMSI: 247114500.

Date/timePositionNaut miles runAvg speedWind from/ knotsBaromVisibWave heightAir tempDewpointWater temp
2018-Feb-10 03:27N 37°39' E 023°43'512.2
2018-Feb-10 03:00N 37°44' E 023°40'611.8
2018-Feb-10 02:31N 37°49' E 023°37'611.6
2018-Feb-10 02:00N 37°50' E 023°29'612.0
2018-Feb-10 01:30N 37°52' E 023°22'612.1
2018-Feb-10 01:00N 37°53' E 023°14'611.6
2018-Feb-10 00:30N 37°54' E 023°07'2 3.4
2018-Feb-10 00:00N 37°55' E 023°05'0 0.1
2018-Feb-09 23:30N 37°55' E 023°05'0 0.0
2018-Feb-09 23:00N 37°55' E 023°05'0 0.0
2018-Feb-09 22:45N 37°55' E 023°05'1 0.0
2018-Feb-08 10:30N 37°54' E 023°05'0 0.1
2018-Feb-08 10:00N 37°54' E 023°05'0 0.1
2018-Feb-08 09:30N 37°54' E 023°05'0 0.2
2018-Feb-08 09:00N 37°54' E 023°05'0 0.0
2018-Feb-08 08:30N 37°54' E 023°05'0 0.1
2018-Feb-08 08:00N 37°54' E 023°05'0 0.1
2018-Feb-08 07:30N 37°54' E 023°05'0 0.1
2018-Feb-08 07:00N 37°54' E 023°05'0 0.3
2018-Feb-08 06:30N 37°54' E 023°05'1 1.3
2018-Feb-08 06:00N 37°54' E 023°05'2 4.8
2018-Feb-08 05:30N 37°53' E 023°08'5 9.8
2018-Feb-08 05:00N 37°53' E 023°14'510.5
2018-Feb-08 04:30N 37°52' E 023°21'510.4
2018-Feb-08 04:00N 37°51' E 023°27'510.0
2018-Feb-08 03:30N 37°50' E 023°34'8 7.7
2018-Feb-08 02:30N 37°46' E 023°42'1111.1
2018-Feb-08 01:30N 37°36' E 023°47'611.2
2018-Feb-08 00:58N 37°30' E 023°50'33010.1
2018-Feb-06 16:13N 35°44' E 030°19'  
2018-Feb-01 10:01N 36°40' E 014°33'014.7
2018-Feb-01 10:00N 36°41' E 014°33'714.2
2018-Feb-01 09:30N 36°43' E 014°24'713.8
2018-Feb-01 09:00N 36°46' E 014°17'713.5
2018-Feb-01 08:30N 36°49' E 014°10'1313.4
2018-Feb-01 07:30N 36°56' E 013°55'714.4
2018-Feb-01 07:00N 36°59' E 013°47'  

Dump ship's entire track history